Time;durP1;ratioP1;P1;durP2;ratioP2;P2;SDS_P1;SDS_P2;PMS_P1;PMS_P2;Temp;Humidity;BMP_temperature;BMP_pressure;BME280_temperature;BME280_humidity;BME280_pressure;Samples;Min_cycle;Max_cycle;Signal;HPM_P1;HPM_P2
2024/02/18 00:00:00;;;;;;;12.13;9.23;;;;;;;1.30;69.01;94465.34;521294;28;806;-72
2024/02/18 00:00:16;;;;;;;12.60;9.77;;;;;;;1.32;69.19;94468.34;520106;28;814;-71
2024/02/18 00:00:31;;;;;;;12.68;9.75;;;;;;;1.33;69.24;94471.81;519059;28;824;-70
2024/02/18 00:00:47;;;;;;;12.67;9.23;;;;;;;1.34;69.17;94473.34;519256;28;1687;-70
2024/02/18 00:01:02;;;;;;;13.43;9.75;;;;;;;1.27;68.94;94451.94;520981;28;798;-70
2024/02/18 00:01:18;;;;;;;13.03;9.80;;;;;;;1.36;68.74;94463.50;519932;28;1020;-70
2024/02/18 00:01:34;;;;;;;12.52;9.40;;;;;;;1.39;69.16;94461.81;519314;28;794;-70
2024/02/18 00:01:49;;;;;;;15.20;9.45;;;;;;;1.41;68.76;94464.81;519482;28;1011;-70
2024/02/18 00:02:06;;;;;;;14.73;8.83;;;;;;;1.43;68.69;94467.81;519510;28;845;-70
2024/02/18 00:02:22;;;;;;;12.45;8.45;;;;;;;1.45;68.75;94457.97;519718;28;833;-71
2024/02/18 00:02:37;;;;;;;11.55;8.60;;;;;;;1.47;68.44;94465.69;520113;28;801;-71
2024/02/18 00:02:53;;;;;;;11.77;9.07;;;;;;;1.48;68.55;94462.50;519902;28;1017;-70
2024/02/18 00:03:08;;;;;;;14.27;9.52;;;;;;;1.45;68.25;94465.41;520197;28;794;-71
2024/02/18 00:03:24;;;;;;;13.77;9.33;;;;;;;1.41;68.10;94468.28;519916;28;888;-70
2024/02/18 00:03:39;;;;;;;10.73;8.88;;;;;;;1.38;68.57;94463.78;520426;28;1635;-70
2024/02/18 00:03:55;;;;;;;12.50;9.30;;;;;;;1.39;68.35;94462.56;521499;28;845;-70
2024/02/18 00:04:11;;;;;;;13.45;9.55;;;;;;;1.41;68.40;94457.41;519975;28;774;-71
2024/02/18 00:04:28;;;;;;;12.38;9.20;;;;;;;1.42;67.98;94467.09;520080;28;1140;-71
2024/02/18 00:04:43;;;;;;;12.68;9.50;;;;;;;1.27;68.41;94443.75;520023;28;1137;-70
2024/02/18 00:04:59;;;;;;;13.10;9.77;;;;;;;1.42;68.29;94464.38;521624;28;785;-71
2024/02/18 00:05:14;;;;;;;12.68;9.15;;;;;;;1.38;68.67;94469.22;522253;28;805;-71
2024/02/18 00:05:33;;;;;;;11.52;8.40;;;;;;;1.38;68.38;94476.63;522120;28;912;-71
2024/02/18 00:05:48;;;;;;;11.70;8.57;;;;;;;1.30;68.91;94472.78;519586;28;861;-70
2024/02/18 00:06:04;;;;;;;11.60;8.53;;;;;;;1.25;68.94;94468.72;521390;28;911;-70
2024/02/18 00:06:20;;;;;;;11.27;8.35;;;;;;;1.22;68.80;94461.47;521713;28;849;-70
2024/02/18 00:06:35;;;;;;;12.75;9.63;;;;;;;1.18;68.98;94468.31;521538;28;877;-70
2024/02/18 00:06:50;;;;;;;14.93;10.97;;;;;;;1.18;69.03;94471.03;521745;28;805;-69
2024/02/18 00:07:06;;;;;;;15.35;11.05;;;;;;;1.17;68.88;94470.25;521729;28;908;-70
2024/02/18 00:07:22;;;;;;;15.40;10.97;;;;;;;1.16;69.37;94468.00;521491;28;865;-69
2024/02/18 00:07:38;;;;;;;15.57;10.63;;;;;;;1.15;69.39;94467.25;521314;28;1116;-69
2024/02/18 00:07:53;;;;;;;14.77;10.48;;;;;;;1.16;69.42;94476.94;521232;28;770;-70
2024/02/18 00:08:08;;;;;;;14.67;10.50;;;;;;;1.14;69.21;94465.00;520503;28;1671;-70
2024/02/18 00:08:24;;;;;;;14.88;10.52;;;;;;;1.14;69.57;94473.94;520525;28;842;-69
2024/02/18 00:08:39;;;;;;;14.47;10.57;;;;;;;1.15;69.27;94471.97;520174;28;750;-70
2024/02/18 00:08:55;;;;;;;15.47;10.27;;;;;;;1.14;69.33;94467.72;520157;28;878;-69
2024/02/18 00:09:10;;;;;;;16.27;10.68;;;;;;;1.12;69.73;94473.63;520310;28;770;-70
2024/02/18 00:09:26;;;;;;;18.23;12.65;;;;;;;1.12;69.79;94475.59;520913;28;1005;-69
2024/02/18 00:09:41;;;;;;;19.00;12.90;;;;;;;1.11;69.74;94474.84;521414;28;912;-70
2024/02/18 00:09:57;;;;;;;19.33;12.43;;;;;;;1.12;69.69;94470.91;521320;28;731;-70
2024/02/18 00:10:12;;;;;;;16.80;11.45;;;;;;;1.13;69.81;94474.38;520593;28;901;-69
2024/02/18 00:10:28;;;;;;;14.10;10.87;;;;;;;1.13;69.87;94472.41;519305;28;821;-69
2024/02/18 00:10:43;;;;;;;15.82;11.55;;;;;;;1.13;69.86;94471.66;519280;28;809;-70
2024/02/18 00:10:58;;;;;;;15.60;11.63;;;;;;;1.15;70.08;94472.69;519918;28;1830;-70
2024/02/18 00:11:15;;;;;;;16.48;11.07;;;;;;;1.15;69.67;94466.53;527879;28;2254;-70
2024/02/18 00:11:30;;;;;;;19.05;10.70;;;;;;;1.17;69.82;94474.97;529561;28;880;-70
2024/02/18 00:11:46;;;;;;;17.42;10.25;;;;;;;1.19;69.95;94475.25;529873;28;794;-70
2024/02/18 00:12:01;;;;;;;15.00;10.20;;;;;;;1.21;69.40;94479.00;528081;28;793;-70
2024/02/18 00:12:17;;;;;;;15.13;10.65;;;;;;;1.20;70.09;94479.47;527867;28;884;-70
2024/02/18 00:12:32;;;;;;;16.07;11.27;;;;;;;1.19;69.74;94477.97;528311;27;1069;-70
2024/02/18 00:12:48;;;;;;;15.70;11.18;;;;;;;1.13;69.50;94466.22;529916;28;762;-70
2024/02/18 00:13:05;;;;;;;16.23;10.83;;;;;;;1.08;69.67;94477.75;526052;28;813;-70
2024/02/18 00:13:20;;;;;;;15.25;10.40;;;;;;;1.07;69.61;94471.53;519317;28;1144;-70
2024/02/18 00:13:37;;;;;;;14.23;10.27;;;;;;;1.10;69.83;94476.06;519590;28;1684;-70
2024/02/18 00:13:54;;;;;;;15.13;10.43;;;;;;;1.12;69.57;94472.88;520119;28;1319;-70
2024/02/18 00:14:09;;;;;;;14.00;10.45;;;;;;;1.12;69.93;94473.63;520895;28;1013;-70
2024/02/18 00:14:25;;;;;;;13.30;10.23;;;;;;;1.15;69.62;94475.41;521433;28;856;-70
2024/02/18 00:14:40;;;;;;;14.03;10.50;;;;;;;1.18;69.89;94471.78;520349;28;793;-70
2024/02/18 00:14:56;;;;;;;14.55;10.85;;;;;;;1.21;69.46;94467.38;520251;28;813;-70
2024/02/18 00:15:11;;;;;;;17.57;10.50;;;;;;;1.23;69.13;94468.44;521360;28;773;-70
2024/02/18 00:15:27;;;;;;;15.80;9.80;;;;;;;1.25;69.56;94473.41;521354;28;880;-70
2024/02/18 00:15:42;;;;;;;12.37;9.60;;;;;;;1.25;69.47;94466.00;519796;28;1486;-70
2024/02/18 00:15:58;;;;;;;12.98;9.93;;;;;;;1.26;69.09;94470.22;520869;28;833;-70
2024/02/18 00:16:13;;;;;;;12.63;9.97;;;;;;;1.27;69.25;94471.72;519487;28;798;-70
2024/02/18 00:16:28;;;;;;;14.43;10.48;;;;;;;1.29;69.09;94466.56;519295;28;1114;-70
2024/02/18 00:16:44;;;;;;;15.87;10.67;;;;;;;1.29;69.10;94466.56;520720;28;835;-70
2024/02/18 00:16:59;;;;;;;15.23;10.57;;;;;;;1.30;69.13;94468.06;521315;28;790;-70
2024/02/18 00:17:15;;;;;;;15.27;11.02;;;;;;;1.32;68.66;94468.34;521349;28;864;-70
2024/02/18 00:17:30;;;;;;;15.37;11.27;;;;;;;1.33;68.93;94463.66;521094;28;1001;-70
2024/02/18 00:17:46;;;;;;;16.85;11.30;;;;;;;1.35;69.15;94472.09;520096;28;964;-70
2024/02/18 00:18:02;;;;;;;17.60;11.23;;;;;;;1.36;68.81;94466.22;520662;28;1576;-70
2024/02/18 00:18:18;;;;;;;16.80;11.18;;;;;;;1.37;69.02;94462.28;520085;28;955;-70
2024/02/18 00:18:33;;;;;;;15.87;11.20;;;;;;;1.37;69.11;94467.72;521007;28;916;-70
2024/02/18 00:18:49;;;;;;;15.77;10.95;;;;;;;1.36;68.23;94468.19;519360;28;960;-70
2024/02/18 00:19:05;;;;;;;16.47;10.50;;;;;;;1.20;68.70;94450.31;520922;28;934;-71
2024/02/18 00:19:20;;;;;;;17.42;10.63;;;;;;;1.30;68.53;94473.50;519117;28;1224;-69
2024/02/18 00:19:35;;;;;;;17.10;10.80;;;;;;;1.23;68.82;94465.72;521216;28;825;-70
2024/02/18 00:19:51;;;;;;;17.13;11.30;;;;;;;1.22;68.74;94472.34;520905;28;825;-70
2024/02/18 00:20:09;;;;;;;16.27;11.40;;;;;;;1.23;68.90;94468.44;519311;28;779;-70
2024/02/18 00:20:25;;;;;;;14.70;10.90;;;;;;;1.24;68.72;94467.19;519294;28;829;-70
2024/02/18 00:20:40;;;;;;;15.90;10.70;;;;;;;1.27;68.82;94471.72;519850;28;1061;-70
2024/02/18 00:20:55;;;;;;;16.00;10.90;;;;;;;1.29;68.63;94469.28;520034;28;1574;-70
2024/02/18 00:21:18;;;;;;;16.03;11.03;;;;;;;1.33;68.95;94461.69;520051;28;1700;-70
2024/02/18 00:21:34;;;;;;;14.27;10.98;;;;;;;1.36;68.68;94465.47;520959;28;833;-70
2024/02/18 00:21:51;;;;;;;14.83;11.03;;;;;;;1.22;68.56;94442.44;521128;28;797;-70
2024/02/18 00:22:07;;;;;;;17.27;11.82;;;;;;;1.38;68.46;94469.22;521125;28;822;-70
2024/02/18 00:22:22;;;;;;;15.20;11.32;;;;;;;1.36;68.87;94468.94;521299;28;786;-70
2024/02/18 00:22:38;;;;;;;13.40;10.30;;;;;;;1.31;68.73;94472.31;521222;28;1079;-70
2024/02/18 00:22:53;;;;;;;14.47;10.30;;;;;;;1.27;68.37;94469.00;521342;28;915;-70
2024/02/18 00:23:09;;;;;;;13.73;9.68;;;;;;;1.27;68.72;94473.69;519615;28;820;-70
2024/02/18 00:23:24;;;;;;;12.23;9.40;;;;;;;1.25;68.45;94467.97;519376;28;1024;-70
2024/02/18 00:23:40;;;;;;;11.88;9.18;;;;;;;1.27;68.56;94466.28;519708;28;1750;-70
2024/02/18 00:23:58;;;;;;;11.30;8.77;;;;;;;1.27;68.66;94466.28;520680;28;836;-70
2024/02/18 00:24:15;;;;;;;10.32;8.10;;;;;;;1.29;68.72;94469.28;519915;28;965;-70
2024/02/18 00:24:30;;;;;;;10.60;8.23;;;;;;;1.31;68.36;94468.81;521239;28;1764;-70
2024/02/18 00:24:46;;;;;;;10.43;8.33;;;;;;;1.32;68.02;94471.06;519535;28;818;-70
2024/02/18 00:25:01;;;;;;;11.60;8.38;;;;;;;1.34;68.38;94462.47;520967;28;833;-70
2024/02/18 00:25:17;;;;;;;11.90;8.40;;;;;;;1.36;68.29;94462.75;521446;28;790;-70
2024/02/18 00:25:32;;;;;;;10.73;8.35;;;;;;;1.37;67.98;94462.28;521254;28;869;-70
2024/02/18 00:25:49;;;;;;;11.13;8.73;;;;;;;1.37;68.00;94462.28;519917;28;898;-70
2024/02/18 00:26:04;;;;;;;10.45;9.32;;;;;;;1.33;67.66;94460.94;520968;28;932;-70
2024/02/18 00:26:19;;;;;;;10.35;9.25;;;;;;;1.23;67.94;94459.50;521262;28;1049;-70
2024/02/18 00:26:38;;;;;;;10.83;9.67;;;;;;;1.18;67.80;94463.63;521349;28;781;-70
2024/02/18 00:26:53;;;;;;;12.35;10.60;;;;;;;1.12;67.62;94464.72;521278;28;853;-70
2024/02/18 00:27:10;;;;;;;13.55;10.77;;;;;;;1.12;68.26;94460.03;521337;28;829;-70
2024/02/18 00:27:26;;;;;;;12.63;10.27;;;;;;;1.13;68.17;94461.53;520962;28;1206;-70
2024/02/18 00:27:41;;;;;;;12.48;10.30;;;;;;;1.16;67.96;94457.91;519254;28;861;-70
2024/02/18 00:27:57;;;;;;;14.50;11.13;;;;;;;1.18;68.13;94465.59;520436;28;829;-70
2024/02/18 00:28:12;;;;;;;13.85;11.15;;;;;;;1.20;68.09;94463.16;520034;28;1691;-70
2024/02/18 00:28:28;;;;;;;13.47;11.27;;;;;;;1.23;68.23;94460.28;520943;28;914;-70
2024/02/18 00:28:43;;;;;;;15.85;11.52;;;;;;;1.27;67.55;94462.81;519669;28;849;-70
2024/02/18 00:28:59;;;;;;;17.83;12.40;;;;;;;1.28;67.83;94464.28;520603;28;912;-70
2024/02/18 00:29:14;;;;;;;20.27;14.73;;;;;;;1.30;67.68;94459.91;519548;28;1025;-70
2024/02/18 00:29:29;;;;;;;23.23;16.60;;;;;;;1.32;67.85;94460.19;519278;28;896;-70
2024/02/18 00:29:45;;;;;;;24.63;17.07;;;;;;;1.34;68.01;94462.47;519294;28;1045;-70
2024/02/18 00:30:00;;;;;;;25.27;17.55;;;;;;;1.29;67.57;94446.78;520814;28;858;-70
2024/02/18 00:30:16;;;;;;;25.13;17.70;;;;;;;1.39;67.85;94465.28;520210;28;773;-70
2024/02/18 00:30:31;;;;;;;24.45;18.02;;;;;;;1.40;67.72;94463.31;519261;28;861;-69
2024/02/18 00:30:50;;;;;;;23.47;17.80;;;;;;;1.42;67.80;94458.91;520167;28;1044;-69
2024/02/18 00:31:06;;;;;;;24.95;17.60;;;;;;;1.42;67.82;94458.91;520494;28;873;-69
2024/02/18 00:31:21;;;;;;;23.48;17.25;;;;;;;1.43;68.01;94457.69;519261;28;850;-69
2024/02/18 00:31:37;;;;;;;21.27;16.37;;;;;;;1.44;67.61;94461.94;521287;28;829;-70
2024/02/18 00:31:52;;;;;;;22.17;16.23;;;;;;;1.45;67.59;94455.25;521232;28;801;-70
2024/02/18 00:32:08;;;;;;;22.40;16.23;;;;;;;1.43;67.79;94454.97;519437;28;845;-70
2024/02/18 00:32:23;;;;;;;20.98;15.90;;;;;;;1.47;67.74;94455.53;520437;28;1037;-70
2024/02/18 00:32:39;;;;;;;21.43;16.07;;;;;;;1.49;67.67;94458.53;521764;28;810;-69
2024/02/18 00:32:54;;;;;;;23.02;16.60;;;;;;;1.49;67.82;94455.81;521586;28;857;-69
2024/02/18 00:33:10;;;;;;;25.23;17.07;;;;;;;1.50;67.63;94459.31;520046;28;857;-70
2024/02/18 00:33:25;;;;;;;25.58;17.55;;;;;;;1.49;67.35;94457.81;519670;28;932;-69
2024/02/18 00:33:41;;;;;;;23.87;17.10;;;;;;;1.45;67.40;94454.53;520017;28;1699;-69
2024/02/18 00:33:56;;;;;;;22.13;17.25;;;;;;;1.45;67.25;94449.81;520721;28;1911;-69
2024/02/18 00:34:12;;;;;;;25.50;17.73;;;;;;;1.42;67.04;94452.72;520353;28;845;-69
2024/02/18 00:34:28;;;;;;;27.35;18.00;;;;;;;1.39;67.20;94442.75;519689;28;837;-69
2024/02/18 00:34:44;;;;;;;25.55;17.88;;;;;;;1.39;67.05;94445.47;519628;28;916;-69
2024/02/18 00:34:59;;;;;;;23.83;17.50;;;;;;;1.38;66.95;94450.19;521066;28;869;-69
2024/02/18 00:35:15;;;;;;;23.17;17.77;;;;;;;1.35;67.23;94447.63;521704;28;858;-69
2024/02/18 00:35:30;;;;;;;25.00;18.60;;;;;;;1.28;66.96;94454.19;521651;28;782;-69
2024/02/18 00:35:45;;;;;;;24.33;18.57;;;;;;;1.19;67.24;94456.22;520438;28;1068;-70
2024/02/18 00:36:01;;;;;;;24.45;18.10;;;;;;;1.17;67.80;94453.94;521251;28;896;-69
2024/02/18 00:36:16;;;;;;;24.13;17.77;;;;;;;1.19;67.48;94456.22;521781;28;802;-69
2024/02/18 00:36:32;;;;;;;24.17;17.47;;;;;;;1.20;67.93;94455.75;521565;28;939;-70
2024/02/18 00:36:48;;;;;;;24.40;17.70;;;;;;;1.23;67.52;94452.13;521647;28;1092;-69
2024/02/18 00:37:03;;;;;;;24.30;17.55;;;;;;;1.28;67.66;94448.72;521180;28;965;-69
2024/02/18 00:37:19;;;;;;;23.70;17.50;;;;;;;1.29;67.39;94452.97;521500;28;953;-70
2024/02/18 00:37:34;;;;;;;23.10;17.97;;;;;;;1.29;67.26;94452.97;521736;28;814;-70
2024/02/18 00:37:50;;;;;;;24.13;18.23;;;;;;;1.29;67.12;94455.69;521664;28;798;-69
2024/02/18 00:38:05;;;;;;;24.25;18.70;;;;;;;1.29;67.08;94449.50;521106;27;1588;-69
2024/02/18 00:38:21;;;;;;;24.63;18.55;;;;;;;1.29;67.26;94452.97;520399;28;826;-69
2024/02/18 00:38:36;;;;;;;25.63;17.83;;;;;;;1.29;67.46;94452.22;521132;28;786;-69
2024/02/18 00:38:52;;;;;;;24.92;17.05;;;;;;;1.29;67.42;94454.94;519910;28;1065;-69
2024/02/18 00:39:09;;;;;;;22.33;16.03;;;;;;;1.30;67.13;94457.19;519670;28;830;-69
2024/02/18 00:39:25;;;;;;;24.40;16.08;;;;;;;1.33;67.13;94456.25;519599;28;918;-69
2024/02/18 00:39:40;;;;;;;22.90;15.32;;;;;;;1.36;67.67;94454.59;519563;28;916;-69
2024/02/18 00:39:55;;;;;;;17.93;13.43;;;;;;;1.37;67.27;94456.06;520591;28;775;-70
2024/02/18 00:40:11;;;;;;;15.48;12.20;;;;;;;1.36;66.91;94460.78;521232;28;862;-70
2024/02/18 00:40:26;;;;;;;16.23;12.03;;;;;;;1.35;66.80;94453.06;519721;28;1077;-71
2024/02/18 00:40:42;;;;;;;16.92;12.60;;;;;;;1.34;66.69;94457.75;519626;28;933;-70
2024/02/18 00:40:58;;;;;;;17.50;12.73;;;;;;;1.38;66.60;94457.59;520300;28;1655;-70
2024/02/18 00:41:13;;;;;;;17.00;12.52;;;;;;;1.40;66.52;94455.16;520394;28;1188;-70
2024/02/18 00:41:29;;;;;;;15.20;11.90;;;;;;;1.42;66.34;94455.44;520813;28;785;-70
2024/02/18 00:41:44;;;;;;;15.73;12.40;;;;;;;1.41;66.53;94457.41;519630;28;782;-70
2024/02/18 00:42:00;;;;;;;18.85;13.68;;;;;;;1.44;66.15;94459.22;520515;28;1003;-71
2024/02/18 00:42:15;;;;;;;19.67;13.97;;;;;;;1.41;66.05;94449.25;521024;28;1029;-70
2024/02/18 00:42:30;;;;;;;20.77;14.30;;;;;;;1.42;66.04;94453.47;521609;28;809;-70
2024/02/18 00:42:46;;;;;;;23.13;14.77;;;;;;;1.47;65.87;94458.25;521723;28;888;-71
2024/02/18 00:43:02;;;;;;;21.17;15.07;;;;;;;1.45;66.06;94446.34;521151;28;778;-71
2024/02/18 00:43:17;;;;;;;18.35;14.13;;;;;;;1.44;65.84;94456.47;519503;28;959;-71
2024/02/18 00:43:33;;;;;;;17.75;13.50;;;;;;;1.42;65.97;94453.47;519477;28;1461;-70
2024/02/18 00:43:49;;;;;;;17.00;13.35;;;;;;;1.40;66.29;94452.44;520913;28;966;-71
2024/02/18 00:44:04;;;;;;;19.80;13.13;;;;;;;1.35;66.28;94453.06;521311;28;865;-71
2024/02/18 00:44:23;;;;;;;21.27;12.87;;;;;;;1.29;66.22;94455.69;520880;28;1084;-70
2024/02/18 00:44:38;;;;;;;17.52;12.82;;;;;;;1.21;66.32;94457.25;521450;28;837;-71
2024/02/18 00:44:54;;;;;;;16.17;12.43;;;;;;;1.19;66.24;94458.94;521156;28;1024;-70
2024/02/18 00:45:09;;;;;;;17.83;12.17;;;;;;;1.15;66.86;94463.81;519619;28;793;-71
2024/02/18 00:45:25;;;;;;;17.77;12.25;;;;;;;1.08;67.06;94459.47;519589;28;936;-70
2024/02/18 00:45:40;;;;;;;16.03;12.53;;;;;;;0.99;67.42;94464.94;519567;28;821;-70
2024/02/18 00:45:56;;;;;;;17.45;13.43;;;;;;;0.91;67.21;94463.78;520612;28;857;-70
2024/02/18 00:46:11;;;;;;;17.93;13.50;;;;;;;0.82;67.60;94461.13;521670;28;849;-71
2024/02/18 00:46:26;;;;;;;19.05;13.40;;;;;;;0.73;68.30;94461.16;521616;28;1076;-71
2024/02/18 00:46:42;;;;;;;20.23;13.77;;;;;;;0.67;68.14;94463.75;519523;28;993;-71
2024/02/18 00:46:57;;;;;;;21.00;13.35;;;;;;;0.62;68.68;94458.19;520601;28;1087;-70
2024/02/18 00:47:13;;;;;;;21.40;13.17;;;;;;;0.56;68.54;94460.03;521620;28;991;-70
2024/02/18 00:47:28;;;;;;;18.88;12.93;;;;;;;0.52;69.14;94464.91;521729;28;818;-70
2024/02/18 00:47:44;;;;;;;18.97;12.67;;;;;;;0.47;69.34;94457.34;521675;28;758;-70
2024/02/18 00:47:59;;;;;;;20.00;13.10;;;;;;;0.43;69.13;94456.78;521580;28;801;-70
2024/02/18 00:48:15;;;;;;;19.25;13.02;;;;;;;0.39;69.28;94465.06;519558;28;1763;-71
2024/02/18 00:48:30;;;;;;;17.88;12.93;;;;;;;0.37;69.44;94461.34;521494;28;814;-70
2024/02/18 00:48:46;;;;;;;16.63;12.33;;;;;;;0.35;69.40;94464.50;519834;28;916;-70
2024/02/18 00:49:01;;;;;;;16.00;11.57;;;;;;;0.36;69.65;94463.28;521311;28;818;-70
2024/02/18 00:49:17;;;;;;;15.38;11.45;;;;;;;0.34;69.82;94467.66;520059;28;770;-70
2024/02/18 00:49:33;;;;;;;12.98;10.43;;;;;;;0.29;69.75;94469.03;519440;28;916;-70
2024/02/18 00:49:49;;;;;;;10.77;8.65;;;;;;;0.26;69.87;94474.66;520713;28;1186;-70
2024/02/18 00:50:05;;;;;;;12.00;8.23;;;;;;;0.22;69.87;94461.22;521669;28;817;-71
2024/02/18 00:50:20;;;;;;;12.70;9.07;;;;;;;0.21;70.07;94462.44;520006;28;882;-70
2024/02/18 00:50:36;;;;;;;13.83;10.50;;;;;;;0.19;70.27;94458.66;519620;28;762;-70
2024/02/18 00:50:51;;;;;;;16.92;11.57;;;;;;;0.18;70.41;94460.63;519902;28;940;-70
2024/02/18 00:51:07;;;;;;;15.90;11.83;;;;;;;0.17;70.15;94463.81;521719;28;984;-70
2024/02/18 00:51:22;;;;;;;14.68;11.63;;;;;;;0.15;70.52;94471.66;521436;28;1023;-70
2024/02/18 00:51:38;;;;;;;14.43;11.00;;;;;;;0.14;70.31;94468.19;521622;28;872;-70
2024/02/18 00:51:53;;;;;;;14.77;11.10;;;;;;;0.14;70.34;94462.75;520711;28;1735;-70
2024/02/18 00:52:10;;;;;;;15.48;11.07;;;;;;;0.11;70.54;94465.63;521033;28;1030;-71
2024/02/18 00:52:25;;;;;;;15.93;11.00;;;;;;;0.11;70.46;94465.63;519976;28;864;-70
2024/02/18 00:52:40;;;;;;;19.83;11.60;;;;;;;0.11;70.57;94465.63;519540;28;848;-70
2024/02/18 00:52:56;;;;;;;19.47;10.90;;;;;;;0.11;70.56;94468.34;520947;28;906;-70
2024/02/18 00:53:11;;;;;;;15.82;10.43;;;;;;;-0.15;70.51;94429.94;521676;28;988;-70
2024/02/18 00:53:27;;;;;;;16.87;11.57;;;;;;;0.10;71.14;94469.53;520751;28;1592;-70
2024/02/18 00:53:42;;;;;;;16.80;12.93;;;;;;;0.10;70.66;94466.84;520449;28;813;-70
2024/02/18 00:53:58;;;;;;;16.87;13.27;;;;;;;0.10;70.67;94467.59;521299;28;2052;-70
2024/02/18 00:54:13;;;;;;;18.33;14.20;;;;;;;0.06;70.72;94463.53;521704;28;779;-71
2024/02/18 00:54:29;;;;;;;20.17;14.60;;;;;;;0.06;70.79;94461.56;520632;28;1620;-70
2024/02/18 00:54:44;;;;;;;19.33;13.82;;;;;;;0.07;70.88;94460.34;520212;28;1032;-70
2024/02/18 00:55:00;;;;;;;18.27;13.83;;;;;;;0.06;70.91;94467.00;520085;28;1520;-70
2024/02/18 00:55:15;;;;;;;17.95;13.52;;;;;;;0.06;71.34;94467.00;519593;28;1215;-70
2024/02/18 00:55:30;;;;;;;18.70;13.20;;;;;;;0.05;70.99;94464.72;519553;28;845;-70
2024/02/18 00:55:46;;;;;;;19.63;13.27;;;;;;;0.02;71.24;94460.22;519657;28;885;-70
2024/02/18 00:56:01;;;;;;;20.40;12.70;;;;;;;0.02;71.32;94462.94;521372;28;798;-70
2024/02/18 00:56:17;;;;;;;21.70;13.07;;;;;;;-0.03;71.57;94459.63;521428;28;969;-70
2024/02/18 00:56:32;;;;;;;19.55;13.52;;;;;;;-0.06;71.59;94457.81;521038;28;869;-70
2024/02/18 00:56:50;;;;;;;18.07;13.33;;;;;;;-0.10;71.91;94459.94;519678;28;802;-70
2024/02/18 00:57:05;;;;;;;17.65;12.40;;;;;;;-0.14;72.17;94462.06;521471;28;845;-70
2024/02/18 00:57:20;;;;;;;17.07;12.43;;;;;;;-0.22;72.40;94462.84;521695;28;758;-70
2024/02/18 00:57:36;;;;;;;17.63;12.95;;;;;;;-0.28;72.72;94459.22;521577;28;798;-70
2024/02/18 00:57:52;;;;;;;17.43;13.23;;;;;;;-0.29;72.79;94463.91;521478;28;1084;-70
2024/02/18 00:58:07;;;;;;;17.02;13.18;;;;;;;-0.27;73.04;94458.75;521102;28;1680;-70
2024/02/18 00:58:22;;;;;;;16.53;12.73;;;;;;;-0.25;73.00;94461.78;520517;28;878;-70
2024/02/18 00:58:38;;;;;;;16.95;13.20;;;;;;;-0.22;73.12;94460.13;520970;28;774;-70
2024/02/18 00:58:54;;;;;;;18.80;13.77;;;;;;;-0.21;73.34;94456.94;520324;28;795;-70
2024/02/18 00:59:09;;;;;;;18.73;13.70;;;;;;;-0.17;73.20;94459.50;521017;28;860;-70
2024/02/18 00:59:25;;;;;;;18.33;13.73;;;;;;;-0.16;73.20;94458.28;519853;28;1141;-70
2024/02/18 00:59:41;;;;;;;18.98;13.95;;;;;;;-0.13;73.07;94458.13;521691;28;928;-70
2024/02/18 00:59:56;;;;;;;19.77;14.30;;;;;;;-0.11;73.01;94452.25;521664;28;868;-70
2024/02/18 01:00:12;;;;;;;21.08;14.52;;;;;;;-0.06;72.83;94457.06;521664;28;868;-71
2024/02/18 01:00:28;;;;;;;20.93;14.93;;;;;;;-0.04;72.78;94460.81;521648;28;801;-70
2024/02/18 01:00:43;;;;;;;22.17;15.25;;;;;;;0.02;72.64;94452.06;521714;28;814;-70
2024/02/18 01:00:59;;;;;;;22.80;15.27;;;;;;;0.06;72.74;94455.38;521590;28;806;-70
2024/02/18 01:01:15;;;;;;;22.67;15.50;;;;;;;0.04;72.80;94455.09;521554;28;1227;-70
2024/02/18 01:01:30;;;;;;;20.63;15.35;;;;;;;0.14;72.57;94464.69;521627;28;908;-70
2024/02/18 01:01:46;;;;;;;18.73;14.55;;;;;;;0.16;72.33;94462.28;521040;28;1798;-70
2024/02/18 01:02:02;;;;;;;19.23;13.80;;;;;;;0.19;72.51;94469.53;520269;28;779;-70
2024/02/18 01:02:17;;;;;;;19.13;12.85;;;;;;;0.20;72.38;94458.19;521312;28;837;-70
2024/02/18 01:02:33;;;;;;;18.58;13.02;;;;;;;0.22;71.59;94466.63;519590;28;874;-70
2024/02/18 01:02:48;;;;;;;19.33;13.30;;;;;;;0.23;71.74;94465.44;519400;28;1057;-70
2024/02/18 01:03:04;;;;;;;19.02;12.77;;;;;;;0.25;71.73;94463.03;521651;28;829;-70
2024/02/18 01:03:19;;;;;;;17.20;12.37;;;;;;;0.24;71.33;94464.22;521573;28;881;-70
2024/02/18 01:03:35;;;;;;;16.67;11.73;;;;;;;0.27;71.40;94468.00;521674;28;774;-70
2024/02/18 01:03:50;;;;;;;16.27;11.33;;;;;;;0.28;71.60;94466.78;521612;28;934;-70
2024/02/18 01:04:06;;;;;;;16.65;11.18;;;;;;;0.28;71.22;94467.53;521567;28;831;-70
2024/02/18 01:04:21;;;;;;;15.90;10.80;;;;;;;0.27;70.96;94459.84;521396;28;1107;-70
2024/02/18 01:04:37;;;;;;;13.65;10.35;;;;;;;0.28;70.83;94466.78;520053;28;1774;-70
2024/02/18 01:04:52;;;;;;;15.77;10.47;;;;;;;0.28;70.79;94462.09;521389;28;790;-70
2024/02/18 01:05:08;;;;;;;16.70;10.38;;;;;;;0.31;70.68;94472.06;519814;28;789;-70
2024/02/18 01:05:23;;;;;;;14.30;10.00;;;;;;;0.33;70.77;94468.88;519571;28;834;-70
2024/02/18 01:05:39;;;;;;;13.27;9.95;;;;;;;0.33;70.87;94458.75;519552;28;798;-70
2024/02/18 01:05:54;;;;;;;13.70;10.17;;;;;;;0.35;70.29;94461.00;520208;28;953;-70
2024/02/18 01:06:10;;;;;;;14.40;10.68;;;;;;;0.39;70.36;94459.63;521571;28;814;-70
2024/02/18 01:06:25;;;;;;;14.93;10.47;;;;;;;0.36;70.07;94460.56;521639;28;908;-70
2024/02/18 01:06:41;;;;;;;16.23;10.73;;;;;;;0.32;69.92;94461.94;520185;28;826;-70
2024/02/18 01:06:56;;;;;;;15.03;10.80;;;;;;;0.29;69.91;94460.13;520618;28;889;-70
2024/02/18 01:07:12;;;;;;;14.20;10.32;;;;;;;0.28;69.80;94456.66;521642;28;841;-70
2024/02/18 01:07:27;;;;;;;14.17;10.53;;;;;;;0.31;70.05;94460.44;521597;28;896;-70
2024/02/18 01:07:43;;;;;;;14.45;11.00;;;;;;;0.04;70.29;94417.09;521438;28;1013;-70
2024/02/18 01:07:58;;;;;;;16.83;11.40;;;;;;;0.38;69.99;94460.88;521580;28;877;-70
2024/02/18 01:08:14;;;;;;;16.40;11.35;;;;;;;0.41;70.10;94457.22;520374;28;1711;-69
2024/02/18 01:08:29;;;;;;;16.75;11.50;;;;;;;0.38;69.98;94443.81;521349;28;864;-70
2024/02/18 01:08:45;;;;;;;18.10;12.27;;;;;;;0.42;70.20;94456.00;519981;28;834;-70
2024/02/18 01:09:00;;;;;;;17.65;12.40;;;;;;;0.18;70.38;94419.88;521203;28;806;-70
2024/02/18 01:09:16;;;;;;;16.47;12.03;;;;;;;0.42;70.29;94457.97;521345;28;879;-69
2024/02/18 01:09:31;;;;;;;14.60;11.68;;;;;;;0.43;70.42;94457.53;521592;28;924;-70
2024/02/18 01:09:49;;;;;;;18.13;12.93;;;;;;;0.45;70.37;94454.34;521672;28;833;-70
2024/02/18 01:10:05;;;;;;;21.83;15.70;;;;;;;0.48;70.53;94456.13;521345;28;831;-70
2024/02/18 01:10:21;;;;;;;23.50;16.27;;;;;;;0.50;70.21;94451.75;520007;28;913;-70
2024/02/18 01:10:36;;;;;;;25.30;15.23;;;;;;;0.52;70.07;94459.47;519593;28;818;-70
2024/02/18 01:10:52;;;;;;;20.50;13.03;;;;;;;0.54;70.27;94455.06;519002;28;1451;-70
2024/02/18 01:11:07;;;;;;;16.37;12.00;;;;;;;0.56;70.25;94454.59;521598;28;889;-70
2024/02/18 01:11:23;;;;;;;15.60;11.68;;;;;;;0.61;70.38;94459.41;520481;28;787;-70
2024/02/18 01:11:38;;;;;;;16.73;11.93;;;;;;;0.63;70.31;94455.00;519547;28;833;-70
2024/02/18 01:11:54;;;;;;;16.50;11.30;;;;;;;0.66;70.01;94451.38;519814;28;1755;-70
2024/02/18 01:12:09;;;;;;;15.95;10.80;;;;;;;0.68;69.99;94451.69;519558;28;814;-70
2024/02/18 01:12:25;;;;;;;16.07;11.50;;;;;;;0.71;69.77;94458.16;520724;28;905;-70
2024/02/18 01:12:40;;;;;;;17.17;11.70;;;;;;;0.72;69.91;94454.97;519530;28;885;-69
2024/02/18 01:12:56;;;;;;;16.57;11.50;;;;;;;0.75;69.99;94456.78;519949;28;789;-70
2024/02/18 01:13:11;;;;;;;16.80;11.38;;;;;;;0.77;69.44;94461.75;519571;28;802;-70
2024/02/18 01:13:27;;;;;;;17.03;10.90;;;;;;;0.80;69.79;94458.13;519614;28;797;-70
2024/02/18 01:13:42;;;;;;;14.45;10.85;;;;;;;0.82;69.45;94452.22;519533;28;816;-70
2024/02/18 01:13:57;;;;;;;15.50;11.13;;;;;;;0.84;69.59;94455.97;519916;28;1926;-70
2024/02/18 01:14:13;;;;;;;15.03;10.27;;;;;;;0.82;69.53;94444.06;520840;28;1139;-69
2024/02/18 01:14:28;;;;;;;13.07;9.57;;;;;;;0.87;69.22;94457.03;521556;28;852;-70
2024/02/18 01:14:44;;;;;;;13.30;9.70;;;;;;;0.87;69.40;94452.31;521655;28;853;-70
2024/02/18 01:15:00;;;;;;;13.65;10.10;;;;;;;0.89;69.04;94451.88;521581;28;877;-70
2024/02/18 01:15:16;;;;;;;12.13;9.97;;;;;;;0.91;68.64;94452.16;521676;28;766;-70